sensor_id;sensor_type;location;lat;lon;timestamp;pressure;altitude;pressure_sealevel;temperature;humidity
76044;BME280;64740;34.694;33.088;2023-03-24T00:04:17;1036.1;;;19.6;46
76044;BME280;64740;34.694;33.088;2023-03-24T00:09:17;1036;;;19.6;45.9
76044;BME280;64740;34.694;33.088;2023-03-24T00:14:13;1035.9;;;19.5;45.9
76044;BME280;64740;34.694;33.088;2023-03-24T00:18:49;1035.9;;;19.5;45.8
76044;BME280;64740;34.694;33.088;2023-03-24T00:23:55;1035.9;;;19.5;45.9
76044;BME280;64740;34.694;33.088;2023-03-24T00:29:19;1035.8;;;19.5;46.1
76044;BME280;64740;34.694;33.088;2023-03-24T00:34:27;1035.8;;;19.4;46
76044;BME280;64740;34.694;33.088;2023-03-24T00:39:07;1035.7;;;19.4;45.9
76044;BME280;64740;34.694;33.088;2023-03-24T00:44:00;1035.7;;;19.3;46.2
76044;BME280;64740;34.694;33.088;2023-03-24T00:48:49;1035.6;;;19.2;46.3
76044;BME280;64740;34.694;33.088;2023-03-24T00:54:19;1035.6;;;19.1;46.6
76044;BME280;64740;34.694;33.088;2023-03-24T00:59:27;1035.6;;;19.1;46.5
76044;BME280;64740;34.694;33.088;2023-03-24T01:04:04;1035.6;;;19.1;46.6
76044;BME280;64740;34.694;33.088;2023-03-24T01:08:51;1035.6;;;19;46.8
76044;BME280;64740;34.694;33.088;2023-03-24T01:14:29;1035.5;;;19;46.7
76044;BME280;64740;34.694;33.088;2023-03-24T01:19:19;1035.5;;;19;46.7
76044;BME280;64740;34.694;33.088;2023-03-24T01:24:27;1035.5;;;19;46.8
76044;BME280;64740;34.694;33.088;2023-03-24T01:28:41;1035.4;;;19;46.8
76044;BME280;64740;34.694;33.088;2023-03-24T01:34:01;1035.4;;;19;46.8
76044;BME280;64740;34.694;33.088;2023-03-24T01:38:39;1035.4;;;19;46.8
76044;BME280;64740;34.694;33.088;2023-03-24T01:44:26;1035.3;;;18.9;46.8
76044;BME280;64740;34.694;33.088;2023-03-24T01:49:31;1035.3;;;18.9;46.7
76044;BME280;64740;34.694;33.088;2023-03-24T01:54:20;1035.3;;;18.8;46.7
76044;BME280;64740;34.694;33.088;2023-03-24T01:59:16;1035.3;;;18.8;46.8
76044;BME280;64740;34.694;33.088;2023-03-24T02:03:49;1035.4;;;18.8;46.8
76044;BME280;64740;34.694;33.088;2023-03-24T02:09:19;1035.3;;;18.8;46.8
76044;BME280;64740;34.694;33.088;2023-03-24T02:14:27;1035.3;;;18.8;46.6
76044;BME280;64740;34.694;33.088;2023-03-24T02:19:34;1035.3;;;18.7;46.9
76044;BME280;64740;34.694;33.088;2023-03-24T02:24:01;1035.3;;;18.8;46.9
76044;BME280;64740;34.694;33.088;2023-03-24T02:28:42;1035.2;;;18.8;47
76044;BME280;64740;34.694;33.088;2023-03-24T02:34:13;1035.2;;;18.8;46.8
76044;BME280;64740;34.694;33.088;2023-03-24T02:39:29;1035.2;;;18.7;46.7
76044;BME280;64740;34.694;33.088;2023-03-24T02:43:52;1035.2;;;18.7;46.9
76044;BME280;64740;34.694;33.088;2023-03-24T02:48:43;1035.2;;;18.6;46.8
76044;BME280;64740;34.694;33.088;2023-03-24T02:53:42;1035.2;;;18.6;47.1
76044;BME280;64740;34.694;33.088;2023-03-24T02:59:18;1035.2;;;18.6;47
76044;BME280;64740;34.694;33.088;2023-03-24T03:04:30;1035.2;;;18.6;47.2
76044;BME280;64740;34.694;33.088;2023-03-24T03:08:53;1035.1;;;18.7;47
76044;BME280;64740;34.694;33.088;2023-03-24T03:13:41;1035;;;18.6;46.8
76044;BME280;64740;34.694;33.088;2023-03-24T03:18:40;1035;;;18.6;46.9
76044;BME280;64740;34.694;33.088;2023-03-24T03:24:20;1035;;;18.5;47.1
76044;BME280;64740;34.694;33.088;2023-03-24T03:29:18;1035;;;18.4;47.1
76044;BME280;64740;34.694;33.088;2023-03-24T03:34:21;1035;;;18.4;47.3
76044;BME280;64740;34.694;33.088;2023-03-24T03:38:57;1035;;;18.4;47.2
76044;BME280;64740;34.694;33.088;2023-03-24T03:43:49;1035;;;18.4;47.2
76044;BME280;64740;34.694;33.088;2023-03-24T03:49:19;1035;;;18.3;47.3
76044;BME280;64740;34.694;33.088;2023-03-24T03:54:25;1034.9;;;18.3;47.4
76044;BME280;64740;34.694;33.088;2023-03-24T03:59:23;1035;;;18.3;47.3
76044;BME280;64740;34.694;33.088;2023-03-24T04:04:03;1035;;;18.3;47.5
76044;BME280;64740;34.694;33.088;2023-03-24T04:08:43;1034.9;;;18.3;47.6
76044;BME280;64740;34.694;33.088;2023-03-24T04:14:20;1035;;;18.4;47.6
76044;BME280;64740;34.694;33.088;2023-03-24T04:19:32;1035;;;18.4;47.7
76044;BME280;64740;34.694;33.088;2023-03-24T04:24:23;1035;;;18.6;47.5
76044;BME280;64740;34.694;33.088;2023-03-24T04:29:01;1035;;;18.6;47.2
76044;BME280;64740;34.694;33.088;2023-03-24T04:33:50;1035;;;18.7;47.2
76044;BME280;64740;34.694;33.088;2023-03-24T04:39:20;1035;;;18.8;47.2
76044;BME280;64740;34.694;33.088;2023-03-24T04:44:27;1034.9;;;18.8;47
76044;BME280;64740;34.694;33.088;2023-03-24T04:49:17;1035;;;18.9;47.2
76044;BME280;64740;34.694;33.088;2023-03-24T04:54:13;1035.1;;;18.9;46.9
76044;BME280;64740;34.694;33.088;2023-03-24T04:58:49;1035.1;;;19;46.9
76044;BME280;64740;34.694;33.088;2023-03-24T05:04:26;1035.1;;;19.1;46.8
76044;BME280;64740;34.694;33.088;2023-03-24T05:09:27;1035.1;;;19.2;46.7
76044;BME280;64740;34.694;33.088;2023-03-24T05:14:18;1035.1;;;19.3;46.5
76044;BME280;64740;34.694;33.088;2023-03-24T05:18:59;1035.1;;;19.4;46.4
76044;BME280;64740;34.694;33.088;2023-03-24T05:23:39;1035.1;;;19.4;46.5
76044;BME280;64740;34.694;33.088;2023-03-24T05:28:59;1035.2;;;19.4;46.6
76044;BME280;64740;34.694;33.088;2023-03-24T05:34:27;1035.3;;;19.5;46.5
76044;BME280;64740;34.694;33.088;2023-03-24T05:39:19;1035.4;;;19.7;46.3
76044;BME280;64740;34.694;33.088;2023-03-24T05:43:57;1035.4;;;19.9;46.1
76044;BME280;64740;34.694;33.088;2023-03-24T05:48:39;1035.5;;;20.2;45.8
76044;BME280;64740;34.694;33.088;2023-03-24T05:53:39;1035.5;;;20.4;45.9
76044;BME280;64740;34.694;33.088;2023-03-24T05:59:17;1035.5;;;20.6;46.1
76044;BME280;64740;34.694;33.088;2023-03-24T06:04:15;1035.6;;;20.8;46.4
76044;BME280;64740;34.694;33.088;2023-03-24T06:09:10;1035.5;;;21.1;46.7
76044;BME280;64740;34.694;33.088;2023-03-24T06:13:39;1035.6;;;21.4;47.5
76044;BME280;64740;34.694;33.088;2023-03-24T06:18:39;1035.6;;;21.6;47.7
76044;BME280;64740;34.694;33.088;2023-03-24T06:24:25;1035.6;;;21.8;48.1
76044;BME280;64740;34.694;33.088;2023-03-24T06:28:41;1035.8;;;21.9;48.8
76044;BME280;64740;34.694;33.088;2023-03-24T06:33:57;1035.8;;;22;49
76044;BME280;64740;34.694;33.088;2023-03-24T06:38:45;1035.8;;;22.2;49.2
76044;BME280;64740;34.694;33.088;2023-03-24T06:43:59;1035.8;;;22.3;49.3
76044;BME280;64740;34.694;33.088;2023-03-24T06:49:25;1035.8;;;22.4;49.4
76044;BME280;64740;34.694;33.088;2023-03-24T06:54:16;1035.8;;;22.4;49.1
76044;BME280;64740;34.694;33.088;2023-03-24T06:58:48;1035.8;;;22.5;49.6
76044;BME280;64740;34.694;33.088;2023-03-24T07:04:07;1035.8;;;22.7;49.2
76044;BME280;64740;34.694;33.088;2023-03-24T07:08:57;1035.7;;;22.8;48.9
76044;BME280;64740;34.694;33.088;2023-03-24T07:14:25;1035.8;;;22.9;48.8
76044;BME280;64740;34.694;33.088;2023-03-24T07:19:17;1035.8;;;22.9;48.6
76044;BME280;64740;34.694;33.088;2023-03-24T07:23:55;1035.8;;;22.9;48.4
76044;BME280;64740;34.694;33.088;2023-03-24T07:29:25;1035.8;;;22.9;48.2
76044;BME280;64740;34.694;33.088;2023-03-24T07:33:53;1035.6;;;22.9;47.9
76044;BME280;64740;34.694;33.088;2023-03-24T07:39:02;1035.5;;;22.9;47.9
76044;BME280;64740;34.694;33.088;2023-03-24T07:44:16;1035.6;;;23.1;48.1
76044;BME280;64740;34.694;33.088;2023-03-24T07:48:39;1035.6;;;23.2;47.8
76044;BME280;64740;34.694;33.088;2023-03-24T07:53:51;1035.6;;;23.2;47.9
76044;BME280;64740;34.694;33.088;2023-03-24T07:59:03;1035.5;;;23.3;48
76044;BME280;64740;34.694;33.088;2023-03-24T08:04:12;1035.5;;;23.3;48
76044;BME280;64740;34.694;33.088;2023-03-24T08:09:15;1035.4;;;23.3;48.1
76044;BME280;64740;34.694;33.088;2023-03-24T08:13:57;1035.3;;;23.4;48.1
76044;BME280;64740;34.694;33.088;2023-03-24T08:18:49;1035.3;;;23.4;47.9
76044;BME280;64740;34.694;33.088;2023-03-24T08:24:21;1035.3;;;23.5;48.1
76044;BME280;64740;34.694;33.088;2023-03-24T08:29:22;1035.2;;;23.6;48.2
76044;BME280;64740;34.694;33.088;2023-03-24T08:34:15;1035.2;;;23.7;47.9
76044;BME280;64740;34.694;33.088;2023-03-24T08:38:49;1035.1;;;23.8;47.7
76044;BME280;64740;34.694;33.088;2023-03-24T08:43:49;1035.1;;;23.9;47.2
76044;BME280;64740;34.694;33.088;2023-03-24T08:48:49;1035.1;;;23.9;46.5
76044;BME280;64740;34.694;33.088;2023-03-24T08:54:10;1035.2;;;24;46.7
76044;BME280;64740;34.694;33.088;2023-03-24T08:58:39;1035.2;;;24;46.7
76044;BME280;64740;34.694;33.088;2023-03-24T09:04:03;1035.2;;;24.1;46.6
76044;BME280;64740;34.694;33.088;2023-03-24T09:08:49;1035.2;;;24.2;46.7
76044;BME280;64740;34.694;33.088;2023-03-24T09:13:56;1035.2;;;24.4;47
76044;BME280;64740;34.694;33.088;2023-03-24T09:19:05;1035.2;;;24.5;48.2
76044;BME280;64740;34.694;33.088;2023-03-24T09:24:02;1035.2;;;24.7;48.7
76044;BME280;64740;34.694;33.088;2023-03-24T09:29:08;1035.2;;;24.9;49
76044;BME280;64740;34.694;33.088;2023-03-24T09:33:40;1035.2;;;25;49.3
76044;BME280;64740;34.694;33.088;2023-03-24T09:39:24;1035.2;;;25.1;49.2
76044;BME280;64740;34.694;33.088;2023-03-24T09:44:08;1035.2;;;25;49.6
76044;BME280;64740;34.694;33.088;2023-03-24T09:48:54;1035.2;;;25;49.7
76044;BME280;64740;34.694;33.088;2023-03-24T09:54:09;1035.2;;;25;49.7
76044;BME280;64740;34.694;33.088;2023-03-24T09:58:40;1035.2;;;24.9;50.2
76044;BME280;64740;34.694;33.088;2023-03-24T10:04:25;1035.2;;;25;50.5
76044;BME280;64740;34.694;33.088;2023-03-24T10:09:14;1035.2;;;25.1;50.5
76044;BME280;64740;34.694;33.088;2023-03-24T10:13:43;1035.1;;;25.1;50.4
76044;BME280;64740;34.694;33.088;2023-03-24T10:19:11;1035;;;25.1;50.5
76044;BME280;64740;34.694;33.088;2023-03-24T10:23:41;1035;;;24.9;50.5
76044;BME280;64740;34.694;33.088;2023-03-24T10:29:24;1035;;;24.7;51
76044;BME280;64740;34.694;33.088;2023-03-24T10:34:08;1034.9;;;24.7;51.1
76044;BME280;64740;34.694;33.088;2023-03-24T10:39:24;1034.9;;;24.6;51.3
76044;BME280;64740;34.694;33.088;2023-03-24T10:44:06;1034.9;;;24.6;51.2
76044;BME280;64740;34.694;33.088;2023-03-24T10:48:41;1034.9;;;24.5;51.5
76044;BME280;64740;34.694;33.088;2023-03-24T10:54:18;1034.8;;;24.4;51.6
76044;BME280;64740;34.694;33.088;2023-03-24T10:59:26;1034.7;;;24.1;51.9
76044;BME280;64740;34.694;33.088;2023-03-24T11:04:04;1034.6;;;23.9;52.1
76044;BME280;64740;34.694;33.088;2023-03-24T11:09:15;1034.5;;;23.8;52.6
76044;BME280;64740;34.694;33.088;2023-03-24T11:13:40;1034.5;;;23.7;52.9
76044;BME280;64740;34.694;33.088;2023-03-24T11:19:24;1034.4;;;23.7;52.9
76044;BME280;64740;34.694;33.088;2023-03-24T11:24:08;1034.3;;;23.6;52.8
76044;BME280;64740;34.694;33.088;2023-03-24T11:29:02;1034.2;;;23.6;52.8
76044;BME280;64740;34.694;33.088;2023-03-24T11:34:12;1034.1;;;23.6;52.9
76044;BME280;64740;34.694;33.088;2023-03-24T11:38:57;1034;;;23.5;52.8
76044;BME280;64740;34.694;33.088;2023-03-24T11:44:28;1034;;;23.4;52.7
76044;BME280;64740;34.694;33.088;2023-03-24T11:49:20;1034;;;23.4;52.7
76044;BME280;64740;34.694;33.088;2023-03-24T11:54:05;1034;;;23.3;53.1
76044;BME280;64740;34.694;33.088;2023-03-24T11:59:01;1034.1;;;23.2;53.3
76044;BME280;64740;34.694;33.088;2023-03-24T12:03:51;1034;;;23.1;53.6
76044;BME280;64740;34.694;33.088;2023-03-24T12:09:03;1034;;;23;54
76044;BME280;64740;34.694;33.088;2023-03-24T12:14:10;1034;;;23;54.3
76044;BME280;64740;34.694;33.088;2023-03-24T12:18:42;1033.9;;;23;54.3
76044;BME280;64740;34.694;33.088;2023-03-24T12:24:15;1033.8;;;22.9;54.6
76044;BME280;64740;34.694;33.088;2023-03-24T12:28:43;1033.7;;;22.8;54.6
76044;BME280;64740;34.694;33.088;2023-03-24T12:34:31;1033.6;;;22.8;54.5
76044;BME280;64740;34.694;33.088;2023-03-24T12:39:10;1033.5;;;22.8;54.2
76044;BME280;64740;34.694;33.088;2023-03-24T12:43:42;1033.4;;;22.8;54.1
76044;BME280;64740;34.694;33.088;2023-03-24T12:49:15;1033.4;;;22.6;53.5
76044;BME280;64740;34.694;33.088;2023-03-24T12:53:53;1033.5;;;21.8;54.6
76044;BME280;64740;34.694;33.088;2023-03-24T12:59:12;1033.5;;;21.2;57.4
76044;BME280;64740;34.694;33.088;2023-03-24T13:03:41;1033.5;;;20.7;59.5
76044;BME280;64740;34.694;33.088;2023-03-24T13:08:51;1033.5;;;20.4;60.8
76044;BME280;64740;34.694;33.088;2023-03-24T13:14:29;1033.5;;;20.2;62.1
76044;BME280;64740;34.694;33.088;2023-03-24T13:18:45;1033.5;;;20;62.7
76044;BME280;64740;34.694;33.088;2023-03-24T13:24:10;1033.5;;;19.9;63.6
76044;BME280;64740;34.694;33.088;2023-03-24T13:28:49;1033.4;;;19.9;64.2
76044;BME280;64740;34.694;33.088;2023-03-24T13:33:58;1033.5;;;19.8;64.9
76044;BME280;64740;34.694;33.088;2023-03-24T13:39:26;1033.5;;;19.8;65.4
76044;BME280;64740;34.694;33.088;2023-03-24T13:43:48;1033.5;;;19.8;66.2
76044;BME280;64740;34.694;33.088;2023-03-24T13:49:13;1033.6;;;19.7;66.3
76044;BME280;64740;34.694;33.088;2023-03-24T13:53:42;1033.6;;;19.7;66.4
76044;BME280;64740;34.694;33.088;2023-03-24T13:59:11;1033.7;;;19.7;66.6
76044;BME280;64740;34.694;33.088;2023-03-24T14:04:21;1033.9;;;19.7;66.5
76044;BME280;64740;34.694;33.088;2023-03-24T14:08:41;1034;;;19.7;66
76044;BME280;64740;34.694;33.088;2023-03-24T14:14:16;1034;;;19.7;66.3
76044;BME280;64740;34.694;33.088;2023-03-24T14:18:40;1033.8;;;20.2;63.6
76044;BME280;64740;34.694;33.088;2023-03-24T14:24:02;1033.6;;;20.6;62.8
76044;BME280;64740;34.694;33.088;2023-03-24T14:29:32;1033.5;;;21;61.7
76044;BME280;64740;34.694;33.088;2023-03-24T14:33:57;1033.5;;;21.3;60.8
76044;BME280;64740;34.694;33.088;2023-03-24T14:39:17;1033.5;;;21.6;59.6
76044;BME280;64740;34.694;33.088;2023-03-24T14:43:52;1033.5;;;21.8;59
76044;BME280;64740;34.694;33.088;2023-03-24T14:49:02;1033.4;;;22;58.9
76044;BME280;64740;34.694;33.088;2023-03-24T14:54:26;1033.4;;;22.1;58.3
76044;BME280;64740;34.694;33.088;2023-03-24T14:58:58;1033.3;;;22.1;57.7
76044;BME280;64740;34.694;33.088;2023-03-24T15:04:12;1033.2;;;22.2;57.4
76044;BME280;64740;34.694;33.088;2023-03-24T15:08:56;1033.2;;;22.1;57.1
76044;BME280;64740;34.694;33.088;2023-03-24T15:13:52;1033.1;;;22.1;56.9
76044;BME280;64740;34.694;33.088;2023-03-24T15:19:23;1033.1;;;22.1;56.7
76044;BME280;64740;34.694;33.088;2023-03-24T15:23:48;1033.1;;;22.1;56.6
76044;BME280;64740;34.694;33.088;2023-03-24T15:29:22;1033.1;;;22.1;56.7
76044;BME280;64740;34.694;33.088;2023-03-24T15:33:48;1033.2;;;22.1;56.8
76044;BME280;64740;34.694;33.088;2023-03-24T15:38:50;1033.3;;;22.1;56.8
76044;BME280;64740;34.694;33.088;2023-03-24T15:44:24;1033.3;;;22;57.8
76044;BME280;64740;34.694;33.088;2023-03-24T15:48:40;1033.3;;;21.9;58.8
76044;BME280;64740;34.694;33.088;2023-03-24T15:54:14;1033.3;;;21.7;59.4
76044;BME280;64740;34.694;33.088;2023-03-24T15:59:05;1033.3;;;21.6;59.9
76044;BME280;64740;34.694;33.088;2023-03-24T16:04:03;1033.1;;;21.6;60.3
76044;BME280;64740;34.694;33.088;2023-03-24T16:09:20;1033.1;;;21.5;60.7
76044;BME280;64740;34.694;33.088;2023-03-24T16:13:40;1033;;;21.5;61.2
76044;BME280;64740;34.694;33.088;2023-03-24T16:18:58;1032.8;;;21.4;61.7
76044;BME280;64740;34.694;33.088;2023-03-24T16:23:40;1032.7;;;21.4;62.2
76044;BME280;64740;34.694;33.088;2023-03-24T16:28:52;1032.5;;;21.3;62.2
76044;BME280;64740;34.694;33.088;2023-03-24T16:34:24;1032.5;;;21.4;61.6
76044;BME280;64740;34.694;33.088;2023-03-24T16:38:40;1032.4;;;21.4;61.9
76044;BME280;64740;34.694;33.088;2023-03-24T16:44:10;1032.3;;;21.5;62.5
76044;BME280;64740;34.694;33.088;2023-03-24T16:48:58;1032.3;;;21.5;63.1
76044;BME280;64740;34.694;33.088;2023-03-24T16:54:14;1032.4;;;21.4;62.8
76044;BME280;64740;34.694;33.088;2023-03-24T16:59:22;1032.4;;;21.4;63.1
76044;BME280;64740;34.694;33.088;2023-03-24T17:03:48;1032.5;;;21.4;63.8
76044;BME280;64740;34.694;33.088;2023-03-24T17:09:12;1032.5;;;21.3;64.3
76044;BME280;64740;34.694;33.088;2023-03-24T17:13:40;1032.4;;;21.3;64.1
76044;BME280;64740;34.694;33.088;2023-03-24T17:18:52;1032.4;;;21.3;63.7
76044;BME280;64740;34.694;33.088;2023-03-24T17:24:22;1032.5;;;21.3;63.5
76044;BME280;64740;34.694;33.088;2023-03-24T17:29:02;1032.5;;;21.3;63.6
76044;BME280;64740;34.694;33.088;2023-03-24T17:34:10;1032.5;;;21.3;63.5
76044;BME280;64740;34.694;33.088;2023-03-24T17:38:58;1032.5;;;21.3;63.3
76044;BME280;64740;34.694;33.088;2023-03-24T17:43:52;1032.4;;;21.3;63.1
76044;BME280;64740;34.694;33.088;2023-03-24T17:49:20;1032.3;;;21.3;63.2
76044;BME280;64740;34.694;33.088;2023-03-24T17:53:40;1032.2;;;21.3;63.4
76044;BME280;64740;34.694;33.088;2023-03-24T17:59:20;1032.1;;;21.3;63.4
76044;BME280;64740;34.694;33.088;2023-03-24T18:03:50;1032.1;;;21.2;63.5
76044;BME280;64740;34.694;33.088;2023-03-24T18:08:40;1032.1;;;21.2;63.5
76044;BME280;64740;34.694;33.088;2023-03-24T18:14:22;1032;;;21.1;63.3
76044;BME280;64740;34.694;33.088;2023-03-24T18:18:40;1032.1;;;21.1;63.2
76044;BME280;64740;34.694;33.088;2023-03-24T18:24:10;1032.2;;;21;63.3
76044;BME280;64740;34.694;33.088;2023-03-24T18:28:50;1032.2;;;21;63.2
76044;BME280;64740;34.694;33.088;2023-03-24T18:33:40;1032.2;;;20.9;63.1
76044;BME280;64740;34.694;33.088;2023-03-24T18:39:20;1032.3;;;20.9;63
76044;BME280;64740;34.694;33.088;2023-03-24T18:43:40;1032.2;;;20.9;62.8
76044;BME280;64740;34.694;33.088;2023-03-24T18:49:00;1032.1;;;20.9;62.7
76044;BME280;64740;34.694;33.088;2023-03-24T18:53:40;1032.1;;;20.9;62.6
76044;BME280;64740;34.694;33.088;2023-03-24T18:58:58;1032.2;;;20.8;62.3
76044;BME280;64740;34.694;33.088;2023-03-24T19:04:18;1032.2;;;20.8;62.2
76044;BME280;64740;34.694;33.088;2023-03-24T19:09:02;1032.2;;;20.7;61.8
76044;BME280;64740;34.694;33.088;2023-03-24T19:14:12;1032.3;;;20.6;62
76044;BME280;64740;34.694;33.088;2023-03-24T19:19:00;1032.4;;;20.6;62.5
76044;BME280;64740;34.694;33.088;2023-03-24T19:23:40;1032.4;;;20.6;62.8
76044;BME280;64740;34.694;33.088;2023-03-24T19:29:10;1032.4;;;20.6;62.9
76044;BME280;64740;34.694;33.088;2023-03-24T19:34:04;1032.3;;;20.6;62.9
76044;BME280;64740;34.694;33.088;2023-03-24T19:39:12;1032.3;;;20.6;62.7
76044;BME280;64740;34.694;33.088;2023-03-24T19:43:40;1032.2;;;20.6;62.5
76044;BME280;64740;34.694;33.088;2023-03-24T19:49:04;1032.2;;;20.6;62.3
76044;BME280;64740;34.694;33.088;2023-03-24T19:54:26;1032.1;;;20.7;62
76044;BME280;64740;34.694;33.088;2023-03-24T19:59:04;1032.1;;;20.7;61.5
76044;BME280;64740;34.694;33.088;2023-03-24T20:04:06;1032;;;20.7;61.5
76044;BME280;64740;34.694;33.088;2023-03-24T20:08:50;1031.9;;;20.7;61.3
76044;BME280;64740;34.694;33.088;2023-03-24T20:13:52;1031.9;;;20.7;61
76044;BME280;64740;34.694;33.088;2023-03-24T20:19:24;1031.9;;;20.7;60.9
76044;BME280;64740;34.694;33.088;2023-03-24T20:24:04;1031.9;;;20.6;60.6
76044;BME280;64740;34.694;33.088;2023-03-24T20:29:06;1032;;;20.6;60.5
76044;BME280;64740;34.694;33.088;2023-03-24T20:33:50;1032;;;20.5;60.5
76044;BME280;64740;34.694;33.088;2023-03-24T20:38:50;1032;;;20.5;60.5
76044;BME280;64740;34.694;33.088;2023-03-24T20:44:24;1032;;;20.5;60.4
76044;BME280;64740;34.694;33.088;2023-03-24T20:49:04;1032;;;20.5;60.5
76044;BME280;64740;34.694;33.088;2023-03-24T20:54:14;1032;;;20.5;60.5
76044;BME280;64740;34.694;33.088;2023-03-24T20:58:40;1032;;;20.5;60.4
76044;BME280;64740;34.694;33.088;2023-03-24T21:03:40;1032;;;20.5;60.3
76044;BME280;64740;34.694;33.088;2023-03-24T21:09:22;1032;;;20.5;60.1
76044;BME280;64740;34.694;33.088;2023-03-24T21:13:52;1032;;;20.4;59.9
76044;BME280;64740;34.694;33.088;2023-03-24T21:19:12;1032.1;;;20.4;59.8
76044;BME280;64740;34.694;33.088;2023-03-24T21:24:24;1032;;;20.3;59.8
76044;BME280;64740;34.694;33.088;2023-03-24T21:28:52;1032;;;20.3;59.7
76044;BME280;64740;34.694;33.088;2023-03-24T21:34:24;1031.9;;;20.3;59.8
76044;BME280;64740;34.694;33.088;2023-03-24T21:38:50;1031.8;;;20.2;59.9
76044;BME280;64740;34.694;33.088;2023-03-24T21:44:12;1031.7;;;20.2;59.9
76044;BME280;64740;34.694;33.088;2023-03-24T21:48:50;1031.7;;;20.2;59.7
76044;BME280;64740;34.694;33.088;2023-03-24T21:54:14;1031.7;;;20.1;59
76044;BME280;64740;34.694;33.088;2023-03-24T21:59:16;1031.7;;;20;58.7
76044;BME280;64740;34.694;33.088;2023-03-24T22:04:02;1031.6;;;19.9;58.4
76044;BME280;64740;34.694;33.088;2023-03-24T22:09:08;1031.7;;;19.9;58.4
76044;BME280;64740;34.694;33.088;2023-03-24T22:13:40;1031.7;;;19.8;58.3
76044;BME280;64740;34.694;33.088;2023-03-24T22:19:08;1031.7;;;19.8;58.2
76044;BME280;64740;34.694;33.088;2023-03-24T22:24:22;1031.8;;;19.8;58.2
76044;BME280;64740;34.694;33.088;2023-03-24T22:29:22;1031.8;;;19.8;58.3
76044;BME280;64740;34.694;33.088;2023-03-24T22:34:04;1031.8;;;19.8;58.2
76044;BME280;64740;34.694;33.088;2023-03-24T22:38:40;1031.7;;;19.7;58.2
76044;BME280;64740;34.694;33.088;2023-03-24T22:44:08;1031.7;;;19.7;58.2
76044;BME280;64740;34.694;33.088;2023-03-24T22:49:20;1031.6;;;19.7;58.2
76044;BME280;64740;34.694;33.088;2023-03-24T22:54:00;1031.6;;;19.7;57.8
76044;BME280;64740;34.694;33.088;2023-03-24T22:59:10;1031.5;;;19.7;57.4
76044;BME280;64740;34.694;33.088;2023-03-24T23:04:02;1031.5;;;19.8;57.1
76044;BME280;64740;34.694;33.088;2023-03-24T23:09:10;1031.5;;;19.8;56.4
76044;BME280;64740;34.694;33.088;2023-03-24T23:14:24;1031.5;;;19.9;56.1
76044;BME280;64740;34.694;33.088;2023-03-24T23:19:02;1031.5;;;19.9;55.7
76044;BME280;64740;34.694;33.088;2023-03-24T23:24:01;1031.4;;;19.8;55.5
76044;BME280;64740;34.694;33.088;2023-03-24T23:29:00;1031.3;;;19.8;55.4
76044;BME280;64740;34.694;33.088;2023-03-24T23:34:10;1031.2;;;19.8;55.3
76044;BME280;64740;34.694;33.088;2023-03-24T23:39:22;1031.1;;;19.8;54.9
76044;BME280;64740;34.694;33.088;2023-03-24T23:44:02;1030.9;;;19.9;54.4
76044;BME280;64740;34.694;33.088;2023-03-24T23:49:12;1030.8;;;19.9;54.2
76044;BME280;64740;34.694;33.088;2023-03-24T23:53:40;1030.7;;;19.9;53.9
76044;BME280;64740;34.694;33.088;2023-03-24T23:58:52;1030.6;;;20;53.4
